sensor_id;sensor_type;location;lat;lon;timestamp;temperature;humidity
10848;DHT22;5477;48.806;9.154;2023-06-22T00:01:26;20.80;99.90
10848;DHT22;5477;48.806;9.154;2023-06-22T00:03:54;20.70;99.90
10848;DHT22;5477;48.806;9.154;2023-06-22T00:06:23;20.70;99.90
10848;DHT22;5477;48.806;9.154;2023-06-22T00:08:51;20.80;99.90
10848;DHT22;5477;48.806;9.154;2023-06-22T00:11:19;20.80;99.90
10848;DHT22;5477;48.806;9.154;2023-06-22T00:13:47;20.80;99.90
10848;DHT22;5477;48.806;9.154;2023-06-22T00:16:16;20.80;99.90
10848;DHT22;5477;48.806;9.154;2023-06-22T00:18:45;20.80;99.90
10848;DHT22;5477;48.806;9.154;2023-06-22T00:21:14;20.80;99.90
10848;DHT22;5477;48.806;9.154;2023-06-22T00:23:42;20.70;99.90
10848;DHT22;5477;48.806;9.154;2023-06-22T00:26:10;20.60;99.90
10848;DHT22;5477;48.806;9.154;2023-06-22T00:28:40;20.50;99.90
10848;DHT22;5477;48.806;9.154;2023-06-22T00:31:08;20.50;99.90
10848;DHT22;5477;48.806;9.154;2023-06-22T00:33:36;20.40;99.90
10848;DHT22;5477;48.806;9.154;2023-06-22T00:36:06;20.30;99.90
10848;DHT22;5477;48.806;9.154;2023-06-22T00:38:37;20.40;99.90
10848;DHT22;5477;48.806;9.154;2023-06-22T00:41:08;20.20;99.90
10848;DHT22;5477;48.806;9.154;2023-06-22T00:43:36;20.20;99.90
10848;DHT22;5477;48.806;9.154;2023-06-22T00:46:04;20.10;99.90
10848;DHT22;5477;48.806;9.154;2023-06-22T00:48:32;20.10;99.90
10848;DHT22;5477;48.806;9.154;2023-06-22T00:51:00;20.20;99.90
10848;DHT22;5477;48.806;9.154;2023-06-22T00:53:30;20.10;99.90
10848;DHT22;5477;48.806;9.154;2023-06-22T00:56:02;20.10;99.90
10848;DHT22;5477;48.806;9.154;2023-06-22T00:58:30;20.10;99.90
10848;DHT22;5477;48.806;9.154;2023-06-22T01:00:58;20.20;99.90
10848;DHT22;5477;48.806;9.154;2023-06-22T01:03:27;20.30;99.90
10848;DHT22;5477;48.806;9.154;2023-06-22T01:05:59;20.20;99.90
10848;DHT22;5477;48.806;9.154;2023-06-22T01:08:39;20.20;99.90
10848;DHT22;5477;48.806;9.154;2023-06-22T01:11:12;20.20;99.90
10848;DHT22;5477;48.806;9.154;2023-06-22T01:13:49;20.30;99.90
10848;DHT22;5477;48.806;9.154;2023-06-22T01:16:22;20.20;99.90
10848;DHT22;5477;48.806;9.154;2023-06-22T01:18:52;20.20;99.90
10848;DHT22;5477;48.806;9.154;2023-06-22T01:21:24;20.30;99.90
10848;DHT22;5477;48.806;9.154;2023-06-22T01:24:07;20.30;99.90
10848;DHT22;5477;48.806;9.154;2023-06-22T01:26:42;20.30;99.90
10848;DHT22;5477;48.806;9.154;2023-06-22T01:29:12;20.30;99.90
10848;DHT22;5477;48.806;9.154;2023-06-22T01:31:42;20.20;99.90
10848;DHT22;5477;48.806;9.154;2023-06-22T01:34:12;20.20;99.90
10848;DHT22;5477;48.806;9.154;2023-06-22T01:36:41;20.30;99.90
10848;DHT22;5477;48.806;9.154;2023-06-22T01:39:10;20.30;99.90
10848;DHT22;5477;48.806;9.154;2023-06-22T01:41:40;20.40;99.90
10848;DHT22;5477;48.806;9.154;2023-06-22T01:44:11;20.50;99.90
10848;DHT22;5477;48.806;9.154;2023-06-22T01:46:41;20.60;99.90
10848;DHT22;5477;48.806;9.154;2023-06-22T01:49:09;20.50;99.90
10848;DHT22;5477;48.806;9.154;2023-06-22T01:51:38;20.50;99.90
10848;DHT22;5477;48.806;9.154;2023-06-22T01:54:06;20.50;99.90
10848;DHT22;5477;48.806;9.154;2023-06-22T01:56:35;20.50;99.90
10848;DHT22;5477;48.806;9.154;2023-06-22T01:59:08;20.50;99.90
10848;DHT22;5477;48.806;9.154;2023-06-22T02:01:43;20.40;99.90
10848;DHT22;5477;48.806;9.154;2023-06-22T02:04:13;20.20;99.90
10848;DHT22;5477;48.806;9.154;2023-06-22T02:06:46;20.10;99.90
10848;DHT22;5477;48.806;9.154;2023-06-22T02:09:17;20.00;99.90
10848;DHT22;5477;48.806;9.154;2023-06-22T02:11:46;20.00;99.90
10848;DHT22;5477;48.806;9.154;2023-06-22T02:14:15;19.90;99.90
10848;DHT22;5477;48.806;9.154;2023-06-22T02:16:47;19.90;99.90
10848;DHT22;5477;48.806;9.154;2023-06-22T02:19:15;19.90;99.90
10848;DHT22;5477;48.806;9.154;2023-06-22T02:21:45;19.80;99.90
10848;DHT22;5477;48.806;9.154;2023-06-22T02:24:13;19.80;99.90
10848;DHT22;5477;48.806;9.154;2023-06-22T02:26:42;19.70;99.90
10848;DHT22;5477;48.806;9.154;2023-06-22T02:29:12;19.60;99.90
10848;DHT22;5477;48.806;9.154;2023-06-22T02:31:42;19.50;99.90
10848;DHT22;5477;48.806;9.154;2023-06-22T02:34:13;19.40;99.90
10848;DHT22;5477;48.806;9.154;2023-06-22T02:36:45;19.40;99.90
10848;DHT22;5477;48.806;9.154;2023-06-22T02:39:19;19.40;99.90
10848;DHT22;5477;48.806;9.154;2023-06-22T02:41:49;19.40;99.90
10848;DHT22;5477;48.806;9.154;2023-06-22T02:44:17;19.40;99.90
10848;DHT22;5477;48.806;9.154;2023-06-22T02:46:48;19.40;99.90
10848;DHT22;5477;48.806;9.154;2023-06-22T02:49:18;19.40;99.90
10848;DHT22;5477;48.806;9.154;2023-06-22T02:51:50;19.30;99.90
10848;DHT22;5477;48.806;9.154;2023-06-22T02:54:22;19.30;99.90
10848;DHT22;5477;48.806;9.154;2023-06-22T02:56:53;19.30;99.90
10848;DHT22;5477;48.806;9.154;2023-06-22T02:59:21;19.40;99.90
10848;DHT22;5477;48.806;9.154;2023-06-22T03:01:54;19.30;99.90
10848;DHT22;5477;48.806;9.154;2023-06-22T03:04:28;19.30;99.90
10848;DHT22;5477;48.806;9.154;2023-06-22T03:06:56;19.30;99.90
10848;DHT22;5477;48.806;9.154;2023-06-22T03:09:29;19.20;99.90
10848;DHT22;5477;48.806;9.154;2023-06-22T03:11:57;19.20;99.90
10848;DHT22;5477;48.806;9.154;2023-06-22T03:14:32;19.20;99.90
10848;DHT22;5477;48.806;9.154;2023-06-22T03:17:02;19.10;99.90
10848;DHT22;5477;48.806;9.154;2023-06-22T03:19:31;19.10;99.90
10848;DHT22;5477;48.806;9.154;2023-06-22T03:22:00;19.10;99.90
10848;DHT22;5477;48.806;9.154;2023-06-22T03:24:28;19.00;99.90
10848;DHT22;5477;48.806;9.154;2023-06-22T03:26:56;19.00;99.90
10848;DHT22;5477;48.806;9.154;2023-06-22T03:29:24;19.00;99.90
10848;DHT22;5477;48.806;9.154;2023-06-22T03:31:57;18.90;99.90
10848;DHT22;5477;48.806;9.154;2023-06-22T03:34:25;18.90;99.90
10848;DHT22;5477;48.806;9.154;2023-06-22T03:36:55;18.90;99.90
10848;DHT22;5477;48.806;9.154;2023-06-22T03:39:23;18.90;99.90
10848;DHT22;5477;48.806;9.154;2023-06-22T03:41:52;18.90;99.90
10848;DHT22;5477;48.806;9.154;2023-06-22T03:44:20;18.80;99.90
10848;DHT22;5477;48.806;9.154;2023-06-22T03:46:57;18.80;99.90
10848;DHT22;5477;48.806;9.154;2023-06-22T03:49:25;18.80;99.90
10848;DHT22;5477;48.806;9.154;2023-06-22T03:51:54;18.80;99.90
10848;DHT22;5477;48.806;9.154;2023-06-22T03:54:22;18.70;99.90
10848;DHT22;5477;48.806;9.154;2023-06-22T03:56:50;18.80;99.90
10848;DHT22;5477;48.806;9.154;2023-06-22T03:59:18;18.90;99.90
10848;DHT22;5477;48.806;9.154;2023-06-22T04:01:46;18.90;99.90
10848;DHT22;5477;48.806;9.154;2023-06-22T04:04:14;18.90;99.90
10848;DHT22;5477;48.806;9.154;2023-06-22T04:06:42;18.90;99.90
10848;DHT22;5477;48.806;9.154;2023-06-22T04:09:12;18.90;99.90
10848;DHT22;5477;48.806;9.154;2023-06-22T04:11:40;18.90;99.90
10848;DHT22;5477;48.806;9.154;2023-06-22T04:14:08;18.90;99.90
10848;DHT22;5477;48.806;9.154;2023-06-22T04:16:36;18.80;99.90
10848;DHT22;5477;48.806;9.154;2023-06-22T04:19:04;18.90;99.90
10848;DHT22;5477;48.806;9.154;2023-06-22T04:21:32;19.00;99.90
10848;DHT22;5477;48.806;9.154;2023-06-22T04:24:00;19.00;99.90
10848;DHT22;5477;48.806;9.154;2023-06-22T04:26:29;19.00;99.90
10848;DHT22;5477;48.806;9.154;2023-06-22T04:28:57;19.10;99.90
10848;DHT22;5477;48.806;9.154;2023-06-22T04:31:25;19.20;99.90
10848;DHT22;5477;48.806;9.154;2023-06-22T04:34:00;19.20;99.90
10848;DHT22;5477;48.806;9.154;2023-06-22T04:36:34;19.30;99.90
10848;DHT22;5477;48.806;9.154;2023-06-22T04:39:05;19.40;99.90
10848;DHT22;5477;48.806;9.154;2023-06-22T04:41:35;19.50;99.90
10848;DHT22;5477;48.806;9.154;2023-06-22T04:44:09;19.60;99.90
10848;DHT22;5477;48.806;9.154;2023-06-22T04:46:38;19.70;99.90
10848;DHT22;5477;48.806;9.154;2023-06-22T04:49:06;19.80;99.90
10848;DHT22;5477;48.806;9.154;2023-06-22T04:51:40;19.90;99.90
10848;DHT22;5477;48.806;9.154;2023-06-22T04:54:09;19.90;99.90
10848;DHT22;5477;48.806;9.154;2023-06-22T04:56:38;19.90;99.90
10848;DHT22;5477;48.806;9.154;2023-06-22T04:59:07;20.10;99.90
10848;DHT22;5477;48.806;9.154;2023-06-22T05:01:40;20.10;99.90
10848;DHT22;5477;48.806;9.154;2023-06-22T05:04:07;20.10;99.90
10848;DHT22;5477;48.806;9.154;2023-06-22T05:06:36;20.20;99.90
10848;DHT22;5477;48.806;9.154;2023-06-22T05:09:06;20.40;99.90
10848;DHT22;5477;48.806;9.154;2023-06-22T05:11:34;20.60;99.90
10848;DHT22;5477;48.806;9.154;2023-06-22T05:14:04;20.70;99.90
10848;DHT22;5477;48.806;9.154;2023-06-22T05:16:32;20.90;99.90
10848;DHT22;5477;48.806;9.154;2023-06-22T05:19:00;21.00;99.90
10848;DHT22;5477;48.806;9.154;2023-06-22T05:21:31;21.20;99.90
10848;DHT22;5477;48.806;9.154;2023-06-22T05:23:59;21.30;99.90
10848;DHT22;5477;48.806;9.154;2023-06-22T05:26:29;21.40;99.90
10848;DHT22;5477;48.806;9.154;2023-06-22T05:28:59;21.60;99.90
10848;DHT22;5477;48.806;9.154;2023-06-22T05:31:29;21.60;99.90
10848;DHT22;5477;48.806;9.154;2023-06-22T05:33:57;21.70;99.90
10848;DHT22;5477;48.806;9.154;2023-06-22T05:36:26;21.70;99.90
10848;DHT22;5477;48.806;9.154;2023-06-22T05:38:56;21.80;99.90
10848;DHT22;5477;48.806;9.154;2023-06-22T05:41:25;21.90;99.90
10848;DHT22;5477;48.806;9.154;2023-06-22T05:43:52;21.90;99.90
10848;DHT22;5477;48.806;9.154;2023-06-22T05:46:21;22.00;99.90
10848;DHT22;5477;48.806;9.154;2023-06-22T05:48:50;22.00;99.90
10848;DHT22;5477;48.806;9.154;2023-06-22T05:51:19;22.10;99.90
10848;DHT22;5477;48.806;9.154;2023-06-22T05:53:47;22.10;99.90
10848;DHT22;5477;48.806;9.154;2023-06-22T05:56:17;22.20;99.90
10848;DHT22;5477;48.806;9.154;2023-06-22T05:58:45;22.20;99.90
10848;DHT22;5477;48.806;9.154;2023-06-22T06:01:13;22.30;99.90
10848;DHT22;5477;48.806;9.154;2023-06-22T06:03:42;22.30;99.90
10848;DHT22;5477;48.806;9.154;2023-06-22T06:06:12;22.30;99.90
10848;DHT22;5477;48.806;9.154;2023-06-22T06:08:41;22.30;99.90
10848;DHT22;5477;48.806;9.154;2023-06-22T06:11:09;22.30;99.90
10848;DHT22;5477;48.806;9.154;2023-06-22T06:13:37;22.30;99.90
10848;DHT22;5477;48.806;9.154;2023-06-22T06:16:05;22.40;99.90
10848;DHT22;5477;48.806;9.154;2023-06-22T06:18:33;22.30;99.90
10848;DHT22;5477;48.806;9.154;2023-06-22T06:21:01;22.40;99.90
10848;DHT22;5477;48.806;9.154;2023-06-22T06:23:31;22.60;99.90
10848;DHT22;5477;48.806;9.154;2023-06-22T06:25:59;22.70;99.90
10848;DHT22;5477;48.806;9.154;2023-06-22T06:28:28;22.80;99.90
10848;DHT22;5477;48.806;9.154;2023-06-22T06:30:56;22.90;99.90
10848;DHT22;5477;48.806;9.154;2023-06-22T06:33:23;23.10;99.90
10848;DHT22;5477;48.806;9.154;2023-06-22T06:35:52;23.10;99.90
10848;DHT22;5477;48.806;9.154;2023-06-22T06:38:22;23.30;99.90
10848;DHT22;5477;48.806;9.154;2023-06-22T06:40:51;23.40;99.90
10848;DHT22;5477;48.806;9.154;2023-06-22T06:43:19;23.50;99.90
10848;DHT22;5477;48.806;9.154;2023-06-22T06:45:48;23.60;99.90
10848;DHT22;5477;48.806;9.154;2023-06-22T06:48:18;23.70;99.90
10848;DHT22;5477;48.806;9.154;2023-06-22T06:50:46;23.80;99.90
10848;DHT22;5477;48.806;9.154;2023-06-22T06:53:14;23.90;99.90
10848;DHT22;5477;48.806;9.154;2023-06-22T06:55:42;24.00;99.90
10848;DHT22;5477;48.806;9.154;2023-06-22T06:58:13;24.10;99.90
10848;DHT22;5477;48.806;9.154;2023-06-22T07:00:43;24.30;99.90
10848;DHT22;5477;48.806;9.154;2023-06-22T07:03:11;24.40;99.90
10848;DHT22;5477;48.806;9.154;2023-06-22T07:05:39;24.40;99.90
10848;DHT22;5477;48.806;9.154;2023-06-22T07:08:07;24.40;99.90
10848;DHT22;5477;48.806;9.154;2023-06-22T07:10:35;24.50;99.90
10848;DHT22;5477;48.806;9.154;2023-06-22T07:13:03;24.60;99.90
10848;DHT22;5477;48.806;9.154;2023-06-22T07:15:32;24.60;99.90
10848;DHT22;5477;48.806;9.154;2023-06-22T07:18:00;24.70;99.90
10848;DHT22;5477;48.806;9.154;2023-06-22T07:20:28;24.80;99.90
10848;DHT22;5477;48.806;9.154;2023-06-22T07:22:56;24.80;99.90
10848;DHT22;5477;48.806;9.154;2023-06-22T07:25:25;24.90;99.90
10848;DHT22;5477;48.806;9.154;2023-06-22T07:28:01;25.00;99.90
10848;DHT22;5477;48.806;9.154;2023-06-22T07:30:31;25.00;99.90
10848;DHT22;5477;48.806;9.154;2023-06-22T07:33:01;25.10;99.90
10848;DHT22;5477;48.806;9.154;2023-06-22T07:35:31;25.20;99.90
10848;DHT22;5477;48.806;9.154;2023-06-22T07:37:59;25.20;99.90
10848;DHT22;5477;48.806;9.154;2023-06-22T07:40:31;25.30;99.90
10848;DHT22;5477;48.806;9.154;2023-06-22T07:43:00;25.30;99.90
10848;DHT22;5477;48.806;9.154;2023-06-22T07:45:28;25.40;99.90
10848;DHT22;5477;48.806;9.154;2023-06-22T07:47:57;25.40;99.90
10848;DHT22;5477;48.806;9.154;2023-06-22T07:50:25;25.50;99.90
10848;DHT22;5477;48.806;9.154;2023-06-22T07:52:54;25.60;99.90
10848;DHT22;5477;48.806;9.154;2023-06-22T07:55:22;25.70;99.90
10848;DHT22;5477;48.806;9.154;2023-06-22T07:57:50;25.70;99.90
10848;DHT22;5477;48.806;9.154;2023-06-22T08:00:19;25.80;99.90
10848;DHT22;5477;48.806;9.154;2023-06-22T08:02:47;25.90;99.90
10848;DHT22;5477;48.806;9.154;2023-06-22T08:05:17;26.10;99.90
10848;DHT22;5477;48.806;9.154;2023-06-22T08:07:48;26.10;99.90
10848;DHT22;5477;48.806;9.154;2023-06-22T08:10:17;26.20;99.90
10848;DHT22;5477;48.806;9.154;2023-06-22T08:12:45;26.40;99.90
10848;DHT22;5477;48.806;9.154;2023-06-22T08:15:14;26.50;99.90
10848;DHT22;5477;48.806;9.154;2023-06-22T08:17:43;26.60;99.90
10848;DHT22;5477;48.806;9.154;2023-06-22T08:20:12;26.80;99.90
10848;DHT22;5477;48.806;9.154;2023-06-22T08:22:42;26.90;99.90
10848;DHT22;5477;48.806;9.154;2023-06-22T08:25:11;27.10;99.90
10848;DHT22;5477;48.806;9.154;2023-06-22T08:27:40;27.40;99.90
10848;DHT22;5477;48.806;9.154;2023-06-22T08:30:09;27.50;99.90
10848;DHT22;5477;48.806;9.154;2023-06-22T08:32:38;27.60;99.90
10848;DHT22;5477;48.806;9.154;2023-06-22T08:35:07;27.70;99.90
10848;DHT22;5477;48.806;9.154;2023-06-22T08:37:36;27.80;99.90
10848;DHT22;5477;48.806;9.154;2023-06-22T08:40:09;27.90;99.90
10848;DHT22;5477;48.806;9.154;2023-06-22T08:42:39;27.80;99.90
10848;DHT22;5477;48.806;9.154;2023-06-22T08:45:09;27.80;99.90
10848;DHT22;5477;48.806;9.154;2023-06-22T08:47:38;27.70;99.90
10848;DHT22;5477;48.806;9.154;2023-06-22T08:50:09;27.80;99.90
10848;DHT22;5477;48.806;9.154;2023-06-22T08:52:37;28.00;99.90
10848;DHT22;5477;48.806;9.154;2023-06-22T08:55:10;28.10;99.90
10848;DHT22;5477;48.806;9.154;2023-06-22T08:57:38;28.50;99.90
10848;DHT22;5477;48.806;9.154;2023-06-22T09:00:08;28.60;99.90
10848;DHT22;5477;48.806;9.154;2023-06-22T09:02:44;28.60;99.90
10848;DHT22;5477;48.806;9.154;2023-06-22T09:05:12;28.90;99.90
10848;DHT22;5477;48.806;9.154;2023-06-22T09:07:41;29.00;99.90
10848;DHT22;5477;48.806;9.154;2023-06-22T09:10:11;29.10;99.90
10848;DHT22;5477;48.806;9.154;2023-06-22T09:12:39;29.10;99.90
10848;DHT22;5477;48.806;9.154;2023-06-22T09:15:08;29.20;99.90
10848;DHT22;5477;48.806;9.154;2023-06-22T09:17:54;29.40;99.90
10848;DHT22;5477;48.806;9.154;2023-06-22T09:20:22;29.10;99.90
10848;DHT22;5477;48.806;9.154;2023-06-22T09:22:50;29.20;99.90
10848;DHT22;5477;48.806;9.154;2023-06-22T09:25:20;29.30;99.90
10848;DHT22;5477;48.806;9.154;2023-06-22T09:27:48;29.20;99.90
10848;DHT22;5477;48.806;9.154;2023-06-22T09:30:16;29.00;99.90
10848;DHT22;5477;48.806;9.154;2023-06-22T09:32:44;28.90;99.90
10848;DHT22;5477;48.806;9.154;2023-06-22T09:35:12;28.90;99.90
10848;DHT22;5477;48.806;9.154;2023-06-22T09:37:40;29.00;99.90
10848;DHT22;5477;48.806;9.154;2023-06-22T09:40:09;29.20;99.90
10848;DHT22;5477;48.806;9.154;2023-06-22T09:42:41;29.40;99.90
10848;DHT22;5477;48.806;9.154;2023-06-22T09:45:10;29.50;99.90
10848;DHT22;5477;48.806;9.154;2023-06-22T09:47:38;29.70;99.90
10848;DHT22;5477;48.806;9.154;2023-06-22T09:50:06;29.80;99.90
10848;DHT22;5477;48.806;9.154;2023-06-22T09:52:35;29.90;99.90
10848;DHT22;5477;48.806;9.154;2023-06-22T09:55:07;30.00;99.90
10848;DHT22;5477;48.806;9.154;2023-06-22T09:57:35;30.20;99.90
10848;DHT22;5477;48.806;9.154;2023-06-22T10:00:05;30.40;99.90
10848;DHT22;5477;48.806;9.154;2023-06-22T10:02:38;30.70;99.90
10848;DHT22;5477;48.806;9.154;2023-06-22T10:05:07;31.20;99.90
10848;DHT22;5477;48.806;9.154;2023-06-22T10:07:35;31.40;99.80
10848;DHT22;5477;48.806;9.154;2023-06-22T10:10:07;31.30;99.00
10848;DHT22;5477;48.806;9.154;2023-06-22T10:12:36;31.20;98.80
10848;DHT22;5477;48.806;9.154;2023-06-22T10:15:06;31.20;99.00
10848;DHT22;5477;48.806;9.154;2023-06-22T10:17:35;30.90;99.30
10848;DHT22;5477;48.806;9.154;2023-06-22T10:20:03;30.90;99.60
10848;DHT22;5477;48.806;9.154;2023-06-22T10:22:38;30.90;99.60
10848;DHT22;5477;48.806;9.154;2023-06-22T10:25:08;30.90;99.90
10848;DHT22;5477;48.806;9.154;2023-06-22T10:27:36;31.10;99.90
10848;DHT22;5477;48.806;9.154;2023-06-22T10:30:09;31.20;99.40
10848;DHT22;5477;48.806;9.154;2023-06-22T10:32:39;31.40;98.90
10848;DHT22;5477;48.806;9.154;2023-06-22T10:35:09;31.70;98.70
10848;DHT22;5477;48.806;9.154;2023-06-22T10:37:40;31.90;98.10
10848;DHT22;5477;48.806;9.154;2023-06-22T10:40:11;32.00;97.60
10848;DHT22;5477;48.806;9.154;2023-06-22T10:42:39;31.90;97.50
10848;DHT22;5477;48.806;9.154;2023-06-22T10:45:09;32.20;97.40
10848;DHT22;5477;48.806;9.154;2023-06-22T10:47:37;32.40;96.60
10848;DHT22;5477;48.806;9.154;2023-06-22T10:50:06;32.60;96.30
10848;DHT22;5477;48.806;9.154;2023-06-22T10:52:34;32.80;95.70
10848;DHT22;5477;48.806;9.154;2023-06-22T10:55:02;32.90;95.30
10848;DHT22;5477;48.806;9.154;2023-06-22T10:57:30;32.70;94.80
10848;DHT22;5477;48.806;9.154;2023-06-22T10:59:59;32.60;95.00
10848;DHT22;5477;48.806;9.154;2023-06-22T11:02:28;32.50;94.70
10848;DHT22;5477;48.806;9.154;2023-06-22T11:04:57;32.40;94.60
10848;DHT22;5477;48.806;9.154;2023-06-22T11:07:27;32.40;94.30
10848;DHT22;5477;48.806;9.154;2023-06-22T11:09:55;32.40;94.50
10848;DHT22;5477;48.806;9.154;2023-06-22T11:12:24;32.40;94.50
10848;DHT22;5477;48.806;9.154;2023-06-22T11:14:52;32.40;94.80
10848;DHT22;5477;48.806;9.154;2023-06-22T11:17:20;32.50;94.70
10848;DHT22;5477;48.806;9.154;2023-06-22T11:19:51;32.50;95.10
10848;DHT22;5477;48.806;9.154;2023-06-22T11:22:18;32.50;95.20
10848;DHT22;5477;48.806;9.154;2023-06-22T11:24:46;32.50;94.40
10848;DHT22;5477;48.806;9.154;2023-06-22T11:27:15;32.40;94.10
10848;DHT22;5477;48.806;9.154;2023-06-22T11:29:43;32.40;94.40
10848;DHT22;5477;48.806;9.154;2023-06-22T11:32:11;32.20;94.20
10848;DHT22;5477;48.806;9.154;2023-06-22T11:34:40;32.20;94.70
10848;DHT22;5477;48.806;9.154;2023-06-22T11:37:10;32.10;94.90
10848;DHT22;5477;48.806;9.154;2023-06-22T11:39:38;32.10;94.90
10848;DHT22;5477;48.806;9.154;2023-06-22T11:42:14;32.10;94.70
10848;DHT22;5477;48.806;9.154;2023-06-22T11:44:42;32.10;94.60
10848;DHT22;5477;48.806;9.154;2023-06-22T11:47:10;32.20;94.30
10848;DHT22;5477;48.806;9.154;2023-06-22T11:49:38;32.20;93.90
10848;DHT22;5477;48.806;9.154;2023-06-22T11:52:07;32.20;94.20
10848;DHT22;5477;48.806;9.154;2023-06-22T11:54:36;32.30;94.10
10848;DHT22;5477;48.806;9.154;2023-06-22T11:57:05;32.40;94.20
10848;DHT22;5477;48.806;9.154;2023-06-22T11:59:33;32.30;94.00
10848;DHT22;5477;48.806;9.154;2023-06-22T12:02:01;32.10;94.20
10848;DHT22;5477;48.806;9.154;2023-06-22T12:04:30;32.10;94.20
10848;DHT22;5477;48.806;9.154;2023-06-22T12:06:58;32.00;94.30
10848;DHT22;5477;48.806;9.154;2023-06-22T12:09:26;31.90;94.90
10848;DHT22;5477;48.806;9.154;2023-06-22T12:11:56;31.90;94.60
10848;DHT22;5477;48.806;9.154;2023-06-22T12:14:24;31.80;93.50
10848;DHT22;5477;48.806;9.154;2023-06-22T12:16:52;31.70;94.00
10848;DHT22;5477;48.806;9.154;2023-06-22T12:19:20;31.60;95.00
10848;DHT22;5477;48.806;9.154;2023-06-22T12:21:48;31.70;94.90
10848;DHT22;5477;48.806;9.154;2023-06-22T12:24:16;31.90;94.90
10848;DHT22;5477;48.806;9.154;2023-06-22T12:26:44;32.00;95.10
10848;DHT22;5477;48.806;9.154;2023-06-22T12:29:14;32.10;94.90
10848;DHT22;5477;48.806;9.154;2023-06-22T12:31:42;32.30;95.00
10848;DHT22;5477;48.806;9.154;2023-06-22T12:34:10;32.30;95.00
10848;DHT22;5477;48.806;9.154;2023-06-22T12:36:38;32.40;94.70
10848;DHT22;5477;48.806;9.154;2023-06-22T12:39:06;32.40;94.80
10848;DHT22;5477;48.806;9.154;2023-06-22T12:41:34;32.40;94.30
10848;DHT22;5477;48.806;9.154;2023-06-22T12:44:02;32.30;94.00
10848;DHT22;5477;48.806;9.154;2023-06-22T12:46:31;32.00;94.40
10848;DHT22;5477;48.806;9.154;2023-06-22T12:49:04;32.10;94.50
10848;DHT22;5477;48.806;9.154;2023-06-22T12:51:32;32.20;94.40
10848;DHT22;5477;48.806;9.154;2023-06-22T12:54:00;32.20;94.60
10848;DHT22;5477;48.806;9.154;2023-06-22T12:56:28;32.40;94.60
10848;DHT22;5477;48.806;9.154;2023-06-22T12:58:56;32.10;95.20
10848;DHT22;5477;48.806;9.154;2023-06-22T13:01:25;31.90;96.10
10848;DHT22;5477;48.806;9.154;2023-06-22T13:03:54;31.70;96.90
10848;DHT22;5477;48.806;9.154;2023-06-22T13:06:22;31.50;97.50
10848;DHT22;5477;48.806;9.154;2023-06-22T13:08:50;31.40;97.70
10848;DHT22;5477;48.806;9.154;2023-06-22T13:11:21;31.30;97.70
10848;DHT22;5477;48.806;9.154;2023-06-22T13:13:49;31.20;98.10
10848;DHT22;5477;48.806;9.154;2023-06-22T13:16:17;31.20;98.40
10848;DHT22;5477;48.806;9.154;2023-06-22T13:18:45;31.20;98.20
10848;DHT22;5477;48.806;9.154;2023-06-22T13:21:14;31.20;98.20
10848;DHT22;5477;48.806;9.154;2023-06-22T13:23:42;31.20;98.20
10848;DHT22;5477;48.806;9.154;2023-06-22T13:26:10;31.20;98.70
10848;DHT22;5477;48.806;9.154;2023-06-22T13:28:38;31.30;99.00
10848;DHT22;5477;48.806;9.154;2023-06-22T13:31:06;31.40;98.90
10848;DHT22;5477;48.806;9.154;2023-06-22T13:33:35;31.50;99.00
10848;DHT22;5477;48.806;9.154;2023-06-22T13:36:03;31.60;99.20
10848;DHT22;5477;48.806;9.154;2023-06-22T13:38:34;31.70;99.40
10848;DHT22;5477;48.806;9.154;2023-06-22T13:41:05;31.80;99.00
10848;DHT22;5477;48.806;9.154;2023-06-22T13:43:33;31.80;98.70
10848;DHT22;5477;48.806;9.154;2023-06-22T13:46:01;31.90;98.80
10848;DHT22;5477;48.806;9.154;2023-06-22T13:48:29;31.90;98.10
10848;DHT22;5477;48.806;9.154;2023-06-22T13:50:57;31.70;98.20
10848;DHT22;5477;48.806;9.154;2023-06-22T13:53:25;31.60;98.80
10848;DHT22;5477;48.806;9.154;2023-06-22T13:55:55;31.70;99.10
10848;DHT22;5477;48.806;9.154;2023-06-22T13:58:23;31.70;99.60
10848;DHT22;5477;48.806;9.154;2023-06-22T14:00:52;31.60;99.50
10848;DHT22;5477;48.806;9.154;2023-06-22T14:03:22;31.60;99.20
10848;DHT22;5477;48.806;9.154;2023-06-22T14:05:51;31.60;99.20
10848;DHT22;5477;48.806;9.154;2023-06-22T14:08:20;31.60;98.90
10848;DHT22;5477;48.806;9.154;2023-06-22T14:11:08;31.60;98.80
10848;DHT22;5477;48.806;9.154;2023-06-22T14:13:36;31.70;98.80
10848;DHT22;5477;48.806;9.154;2023-06-22T14:16:04;31.70;98.60
10848;DHT22;5477;48.806;9.154;2023-06-22T14:18:32;31.80;97.90
10848;DHT22;5477;48.806;9.154;2023-06-22T14:21:00;31.90;97.70
10848;DHT22;5477;48.806;9.154;2023-06-22T14:23:28;32.50;97.80
10848;DHT22;5477;48.806;9.154;2023-06-22T14:25:56;33.30;96.70
10848;DHT22;5477;48.806;9.154;2023-06-22T14:28:25;33.90;95.20
10848;DHT22;5477;48.806;9.154;2023-06-22T14:30:53;34.10;94.60
10848;DHT22;5477;48.806;9.154;2023-06-22T14:33:23;34.10;93.80
10848;DHT22;5477;48.806;9.154;2023-06-22T14:35:51;34.00;93.40
10848;DHT22;5477;48.806;9.154;2023-06-22T14:38:19;34.20;92.40
10848;DHT22;5477;48.806;9.154;2023-06-22T14:40:47;34.20;91.80
10848;DHT22;5477;48.806;9.154;2023-06-22T14:43:37;34.20;90.90
10848;DHT22;5477;48.806;9.154;2023-06-22T14:46:05;34.20;91.20
10848;DHT22;5477;48.806;9.154;2023-06-22T14:48:33;34.70;90.20
10848;DHT22;5477;48.806;9.154;2023-06-22T14:51:01;35.80;86.60
10848;DHT22;5477;48.806;9.154;2023-06-22T14:53:29;36.50;85.20
10848;DHT22;5477;48.806;9.154;2023-06-22T14:55:57;36.60;80.90
10848;DHT22;5477;48.806;9.154;2023-06-22T14:58:28;37.30;75.00
10848;DHT22;5477;48.806;9.154;2023-06-22T15:01:01;37.60;69.60
10848;DHT22;5477;48.806;9.154;2023-06-22T15:03:30;37.30;67.90
10848;DHT22;5477;48.806;9.154;2023-06-22T15:05:59;37.10;59.50
10848;DHT22;5477;48.806;9.154;2023-06-22T15:08:28;36.60;56.60
10848;DHT22;5477;48.806;9.154;2023-06-22T15:10:58;36.00;56.20
10848;DHT22;5477;48.806;9.154;2023-06-22T15:13:27;35.90;56.30
10848;DHT22;5477;48.806;9.154;2023-06-22T15:15:56;35.90;55.40
10848;DHT22;5477;48.806;9.154;2023-06-22T15:18:26;35.70;55.10
10848;DHT22;5477;48.806;9.154;2023-06-22T15:20:54;35.60;54.30
10848;DHT22;5477;48.806;9.154;2023-06-22T15:23:22;35.60;54.10
10848;DHT22;5477;48.806;9.154;2023-06-22T15:25:51;36.00;52.90
10848;DHT22;5477;48.806;9.154;2023-06-22T15:28:18;36.10;52.80
10848;DHT22;5477;48.806;9.154;2023-06-22T15:30:50;36.40;52.30
10848;DHT22;5477;48.806;9.154;2023-06-22T15:33:20;37.10;51.00
10848;DHT22;5477;48.806;9.154;2023-06-22T15:35:49;37.10;51.10
10848;DHT22;5477;48.806;9.154;2023-06-22T15:38:19;37.20;50.30
10848;DHT22;5477;48.806;9.154;2023-06-22T15:40:47;37.60;50.10
10848;DHT22;5477;48.806;9.154;2023-06-22T15:43:15;37.50;49.40
10848;DHT22;5477;48.806;9.154;2023-06-22T15:45:44;37.20;50.20
10848;DHT22;5477;48.806;9.154;2023-06-22T15:48:12;36.50;50.60
10848;DHT22;5477;48.806;9.154;2023-06-22T15:50:40;36.00;51.80
10848;DHT22;5477;48.806;9.154;2023-06-22T15:53:11;35.90;51.60
10848;DHT22;5477;48.806;9.154;2023-06-22T15:55:40;35.80;51.90
10848;DHT22;5477;48.806;9.154;2023-06-22T15:58:08;36.00;51.80